Time;durP1;ratioP1;P1;durP2;ratioP2;P2;SDS_P1;SDS_P2;PMS_P1;PMS_P2;Temp;Humidity;BMP_temperature;BMP_pressure;BME280_temperature;BME280_humidity;BME280_pressure;Samples;Min_cycle;Max_cycle;Signal;HPM_P1;HPM_P2
2022/07/16 00:02:06;;;;;;;0.90;0.50;;;16.60;83.10;;;;;;5052421;28;20457;-83
2022/07/16 00:04:33;;;;;;;1.13;1.03;;;16.60;83.40;;;;;;5075482;28;20440;-83
2022/07/16 00:07:00;;;;;;;1.20;0.70;;;16.60;83.20;;;;;;5075109;28;20459;-83
2022/07/16 00:09:28;;;;;;;1.43;0.60;;;16.50;83.10;;;;;;5075373;28;20452;-83
2022/07/16 00:11:54;;;;;;;0.70;0.70;;;16.50;83.20;;;;;;5075215;28;20477;-83
2022/07/16 00:14:21;;;;;;;1.00;0.90;;;16.50;83.20;;;;;;5075207;28;20448;-83
2022/07/16 00:16:48;;;;;;;2.50;0.70;;;16.50;84.10;;;;;;5075212;28;20441;-83
2022/07/16 00:19:18;;;;;;;1.07;0.67;;;16.40;84.80;;;;;;5075081;28;20476;-83
2022/07/16 00:21:46;;;;;;;1.63;0.90;;;16.40;84.40;;;;;;5074120;28;20495;-83
2022/07/16 00:24:13;;;;;;;0.87;0.80;;;16.30;83.80;;;;;;5074704;28;20795;-83
2022/07/16 00:26:41;;;;;;;1.17;0.70;;;16.30;84.00;;;;;;5074687;28;20464;-83
2022/07/16 00:29:08;;;;;;;1.43;0.60;;;16.30;84.10;;;;;;5074568;28;20468;-83
2022/07/16 00:31:35;;;;;;;5.73;0.97;;;16.30;84.50;;;;;;5074831;28;20477;-83
2022/07/16 00:34:02;;;;;;;2.27;0.60;;;16.20;84.60;;;;;;5074565;28;20480;-83
2022/07/16 00:36:28;;;;;;;0.60;0.60;;;16.20;84.60;;;;;;5074433;28;20540;-83
2022/07/16 00:38:55;;;;;;;2.03;0.80;;;16.10;85.30;;;;;;5074238;28;20484;-83
2022/07/16 00:41:22;;;;;;;0.70;0.60;;;16.10;85.20;;;;;;5074686;28;20445;-83
2022/07/16 00:43:52;;;;;;;1.07;0.80;;;16.00;85.40;;;;;;5074370;28;20456;-83
2022/07/16 00:46:19;;;;;;;1.00;0.83;;;16.10;86.10;;;;;;5074641;28;20417;-84
2022/07/16 00:48:47;;;;;;;0.70;0.60;;;16.00;86.20;;;;;;5074454;28;20469;-83
2022/07/16 00:51:15;;;;;;;0.93;0.60;;;16.00;86.00;;;;;;5074467;28;20441;-83
2022/07/16 00:53:43;;;;;;;1.30;0.70;;;15.90;86.10;;;;;;5074437;28;20448;-83
2022/07/16 00:56:11;;;;;;;0.73;0.73;;;15.90;86.20;;;;;;5074429;28;20812;-83
2022/07/16 00:58:39;;;;;;;0.63;0.63;;;15.90;86.30;;;;;;5074250;28;20464;-83
2022/07/16 01:01:08;;;;;;;0.80;0.80;;;15.90;86.30;;;;;;5074322;28;20448;-83
2022/07/16 01:03:35;;;;;;;0.73;0.73;;;15.90;86.20;;;;;;5073919;28;20444;-83
2022/07/16 01:06:03;;;;;;;1.03;0.93;;;15.90;85.50;;;;;;5074082;28;20441;-83
2022/07/16 01:08:30;;;;;;;1.00;0.70;;;15.90;85.30;;;;;;5074041;28;20472;-83
2022/07/16 01:10:58;;;;;;;0.70;0.63;;;15.80;85.60;;;;;;5074078;28;20472;-83
2022/07/16 01:13:25;;;;;;;1.73;0.80;;;15.80;85.80;;;;;;5073976;28;20481;-83
2022/07/16 01:15:51;;;;;;;1.67;0.60;;;15.70;85.80;;;;;;5074013;28;20851;-82
2022/07/16 01:18:20;;;;;;;0.80;0.80;;;15.70;85.80;;;;;;5073900;28;20472;-83
2022/07/16 01:20:46;;;;;;;0.50;0.50;;;15.70;86.10;;;;;;5073623;28;20437;-83
2022/07/16 01:23:19;;;;;;;1.70;0.83;;;15.60;86.30;;;;;;5073896;28;20436;-83
2022/07/16 01:25:46;;;;;;;1.37;0.60;;;15.60;86.30;;;;;;5073911;28;20440;-83
2022/07/16 01:28:13;;;;;;;0.70;0.70;;;15.60;86.20;;;;;;5073704;28;20469;-83
2022/07/16 01:30:40;;;;;;;1.50;0.70;;;15.50;85.60;;;;;;5073759;28;20449;-83
2022/07/16 01:33:20;;;;;;;0.80;0.80;;;15.50;85.60;;;;;;5073162;28;20489;-83
2022/07/16 01:35:47;;;;;;;0.53;0.53;;;15.50;86.30;;;;;;5073532;28;20433;-83
2022/07/16 01:38:13;;;;;;;1.00;0.80;;;15.40;86.70;;;;;;5073224;28;20496;-83
2022/07/16 01:40:41;;;;;;;0.97;0.93;;;15.40;86.60;;;;;;5073697;28;20449;-83
2022/07/16 01:43:13;;;;;;;0.50;0.50;;;15.30;86.40;;;;;;5073600;28;20463;-83
2022/07/16 01:45:40;;;;;;;0.70;0.70;;;15.30;86.50;;;;;;5073647;28;20442;-84
2022/07/16 01:48:07;;;;;;;2.67;0.57;;;15.20;87.00;;;;;;5073482;28;20461;-83
2022/07/16 01:50:34;;;;;;;1.83;1.03;;;15.30;87.00;;;;;;5073514;28;20445;-83
2022/07/16 01:53:01;;;;;;;1.53;0.73;;;15.20;86.90;;;;;;5073205;28;20480;-83
2022/07/16 01:55:27;;;;;;;0.77;0.67;;;15.20;87.60;;;;;;5073166;28;20947;-83
2022/07/16 01:57:56;;;;;;;0.53;0.53;;;15.10;88.50;;;;;;5073402;28;20834;-83
2022/07/16 02:00:23;;;;;;;0.60;0.50;;;15.10;88.70;;;;;;5073162;28;20955;-83
2022/07/16 02:02:49;;;;;;;1.17;0.80;;;15.10;88.40;;;;;;5073159;28;20527;-83
2022/07/16 02:05:16;;;;;;;0.90;0.60;;;15.00;88.20;;;;;;5073384;28;20456;-83
2022/07/16 02:07:43;;;;;;;1.90;1.03;;;15.00;88.20;;;;;;5073297;28;20460;-84
2022/07/16 02:10:10;;;;;;;0.97;0.80;;;15.00;87.50;;;;;;5073348;28;20452;-83
2022/07/16 02:12:37;;;;;;;0.80;0.63;;;14.90;87.50;;;;;;5072943;28;21011;-83
2022/07/16 02:15:07;;;;;;;0.60;0.50;;;14.90;87.80;;;;;;5073288;28;20436;-84
2022/07/16 02:17:34;;;;;;;0.83;0.70;;;14.90;87.60;;;;;;5072924;28;20976;-83
2022/07/16 02:20:02;;;;;;;1.70;0.70;;;14.90;87.90;;;;;;5073216;28;20460;-84
2022/07/16 02:22:29;;;;;;;1.80;0.90;;;14.80;88.40;;;;;;5072919;28;20449;-83
2022/07/16 02:24:56;;;;;;;0.57;0.57;;;14.80;89.10;;;;;;5072936;28;20441;-84
2022/07/16 02:27:23;;;;;;;2.00;0.70;;;14.80;89.30;;;;;;5073082;28;20472;-83
2022/07/16 02:29:49;;;;;;;0.73;0.70;;;14.80;89.60;;;;;;5073109;28;20452;-84
2022/07/16 02:32:18;;;;;;;0.40;0.40;;;14.80;90.00;;;;;;5073024;28;20483;-84
2022/07/16 02:34:45;;;;;;;2.60;0.87;;;14.80;90.00;;;;;;5073053;28;20457;-83
2022/07/16 02:37:12;;;;;;;2.87;0.83;;;14.80;90.00;;;;;;5072400;28;20992;-83
2022/07/16 02:39:38;;;;;;;1.93;0.63;;;14.80;90.20;;;;;;5073075;28;20444;-83
2022/07/16 02:42:05;;;;;;;4.90;0.80;;;14.80;90.30;;;;;;5072980;28;20449;-83
2022/07/16 02:44:32;;;;;;;0.50;0.50;;;14.80;90.20;;;;;;5073010;28;20456;-84
2022/07/16 02:46:58;;;;;;;0.60;0.60;;;14.80;90.40;;;;;;5076616;28;20944;-84
2022/07/16 02:49:27;;;;;;;0.77;0.77;;;14.80;90.40;;;;;;5076761;28;20473;-84
2022/07/16 02:51:54;;;;;;;0.80;0.80;;;14.70;90.30;;;;;;5076671;28;20456;-83
2022/07/16 02:54:20;;;;;;;1.93;0.60;;;14.70;90.40;;;;;;5076412;28;20971;-83
2022/07/16 02:56:47;;;;;;;1.93;1.07;;;14.70;90.50;;;;;;5076452;28;20429;-83
2022/07/16 02:59:14;;;;;;;1.27;1.17;;;14.70;90.90;;;;;;5076630;28;20464;-83
2022/07/16 03:01:40;;;;;;;0.90;0.70;;;14.60;90.80;;;;;;5076582;28;20441;-84
2022/07/16 03:04:07;;;;;;;0.60;0.60;;;14.60;90.90;;;;;;5076556;28;20444;-83
2022/07/16 03:06:36;;;;;;;1.83;0.70;;;14.60;91.30;;;;;;5076503;28;20448;-84
2022/07/16 03:09:04;;;;;;;0.50;0.50;;;14.60;91.10;;;;;;5076408;28;20825;-84
2022/07/16 03:11:31;;;;;;;0.70;0.60;;;14.50;91.00;;;;;;5076444;28;20440;-83
2022/07/16 03:13:57;;;;;;;1.10;0.60;;;14.50;91.00;;;;;;5076287;28;20484;-84
2022/07/16 03:16:24;;;;;;;0.40;0.40;;;14.50;91.20;;;;;;5076319;28;20449;-83
2022/07/16 03:18:51;;;;;;;0.70;0.70;;;14.50;91.20;;;;;;5076248;28;20469;-84
2022/07/16 03:21:17;;;;;;;0.50;0.47;;;14.50;91.00;;;;;;5076198;28;20449;-84
2022/07/16 03:23:45;;;;;;;0.67;0.67;;;14.40;91.00;;;;;;5075892;28;20932;-84
2022/07/16 03:26:12;;;;;;;0.50;0.50;;;14.40;91.20;;;;;;5076134;28;20449;-83
2022/07/16 03:28:39;;;;;;;0.63;0.60;;;14.40;91.10;;;;;;5076085;28;20468;-84
2022/07/16 03:31:06;;;;;;;1.50;1.00;;;14.40;91.10;;;;;;5076093;28;20444;-83
2022/07/16 03:33:33;;;;;;;1.23;0.60;;;14.40;91.10;;;;;;5075626;28;21081;-84
2022/07/16 03:35:59;;;;;;;0.90;0.63;;;14.30;91.50;;;;;;5076028;28;20457;-83
2022/07/16 03:41:12;;;;;;;0.93;0.50;;;14.30;91.70;;;;;;5075719;28;20483;-83
2022/07/16 03:43:38;;;;;;;0.70;0.53;;;14.30;91.70;;;;;;5075871;28;20445;-84
2022/07/16 03:46:05;;;;;;;1.53;0.57;;;14.30;91.70;;;;;;5075818;28;20453;-83
2022/07/16 03:48:32;;;;;;;0.70;0.57;;;14.20;91.80;;;;;;5075707;28;20476;-83
2022/07/16 03:50:59;;;;;;;0.80;0.60;;;14.20;91.60;;;;;;5075736;28;20452;-83
2022/07/16 03:53:25;;;;;;;0.77;0.60;;;14.20;91.50;;;;;;5075337;28;20487;-83
2022/07/16 03:55:52;;;;;;;2.50;0.93;;;14.30;91.30;;;;;;5075458;28;20445;-84
2022/07/16 03:58:20;;;;;;;0.43;0.40;;;14.30;91.30;;;;;;5074636;28;20829;-84
2022/07/16 04:00:47;;;;;;;1.07;0.97;;;14.30;91.50;;;;;;5075559;28;20472;-84
2022/07/16 04:03:14;;;;;;;0.50;0.50;;;14.30;91.40;;;;;;5075182;28;20448;-84
2022/07/16 04:05:40;;;;;;;0.77;0.67;;;14.30;91.40;;;;;;5075439;28;20445;-84
2022/07/16 04:08:07;;;;;;;0.50;0.50;;;14.30;91.40;;;;;;5075062;28;20464;-83
2022/07/16 04:10:34;;;;;;;0.80;0.60;;;14.30;91.50;;;;;;5075048;28;20923;-84
2022/07/16 04:13:01;;;;;;;0.60;0.60;;;14.40;91.30;;;;;;5075219;28;20483;-84
2022/07/16 04:15:29;;;;;;;0.87;0.50;;;14.30;91.30;;;;;;5075267;28;20441;-83
2022/07/16 04:17:56;;;;;;;0.73;0.60;;;14.40;91.60;;;;;;5075128;28;20547;-83
2022/07/16 04:20:22;;;;;;;0.73;0.73;;;14.40;91.40;;;;;;5075132;28;20445;-83
2022/07/16 04:22:49;;;;;;;0.50;0.50;;;14.40;91.00;;;;;;5075115;28;20441;-83
2022/07/16 04:25:16;;;;;;;1.10;0.77;;;14.50;91.10;;;;;;5074701;28;20800;-83
2022/07/16 04:27:43;;;;;;;0.40;0.40;;;14.50;91.20;;;;;;5074610;28;20475;-83
2022/07/16 04:30:12;;;;;;;0.47;0.47;;;14.60;91.60;;;;;;5074988;28;20805;-83
2022/07/16 04:32:41;;;;;;;0.47;0.40;;;14.60;91.60;;;;;;5074559;28;20456;-83
2022/07/16 04:35:09;;;;;;;0.60;0.60;;;14.70;91.80;;;;;;5074555;28;20453;-83
2022/07/16 04:37:36;;;;;;;0.57;0.50;;;14.70;91.70;;;;;;5074457;28;20499;-84
2022/07/16 04:40:03;;;;;;;2.50;0.40;;;14.70;91.30;;;;;;5074631;28;20472;-84
2022/07/16 04:42:30;;;;;;;2.40;0.77;;;14.70;91.50;;;;;;5074710;28;20444;-83
2022/07/16 04:44:56;;;;;;;1.70;0.87;;;14.80;91.50;;;;;;5074624;28;20455;-83
2022/07/16 04:47:23;;;;;;;0.80;0.63;;;14.80;91.60;;;;;;5074577;28;20855;-83
2022/07/16 04:49:51;;;;;;;0.50;0.50;;;14.80;91.70;;;;;;5074562;28;20437;-84
2022/07/16 04:52:18;;;;;;;0.70;0.50;;;14.80;91.70;;;;;;5074474;28;20440;-84
2022/07/16 04:54:45;;;;;;;1.63;0.70;;;14.80;91.70;;;;;;5074125;28;21011;-83
2022/07/16 04:57:11;;;;;;;2.10;0.83;;;14.80;92.00;;;;;;5074310;28;20449;-84
2022/07/16 04:59:38;;;;;;;4.20;0.63;;;14.90;92.00;;;;;;5074027;28;20827;-83
2022/07/16 05:04:46;;;;;;;0.60;0.50;;;15.00;91.40;;;;;;5073630;28;20433;-84
2022/07/16 05:07:14;;;;;;;0.50;0.50;;;15.00;91.20;;;;;;5074175;28;20448;-84
2022/07/16 05:09:41;;;;;;;0.60;0.50;;;15.10;91.30;;;;;;5073663;28;20812;-84
2022/07/16 05:12:07;;;;;;;0.40;0.40;;;15.10;91.30;;;;;;5074115;28;20452;-84
2022/07/16 05:14:34;;;;;;;0.60;0.60;;;15.20;91.50;;;;;;5074018;28;20475;-84
2022/07/16 05:17:01;;;;;;;0.60;0.50;;;15.20;91.40;;;;;;5074062;28;20441;-84
2022/07/16 05:19:28;;;;;;;0.60;0.60;;;15.30;91.10;;;;;;5073904;28;20460;-84
2022/07/16 05:21:54;;;;;;;0.80;0.50;;;15.30;91.20;;;;;;5073954;28;20456;-83
2022/07/16 05:24:23;;;;;;;0.63;0.63;;;15.40;91.60;;;;;;5073602;28;20967;-83
2022/07/16 05:26:50;;;;;;;1.17;0.70;;;15.40;91.60;;;;;;5073859;28;20527;-84
2022/07/16 05:29:17;;;;;;;0.50;0.50;;;15.50;91.40;;;;;;5073724;28;20472;-83
2022/07/16 05:31:44;;;;;;;1.13;0.80;;;15.60;91.20;;;;;;5073769;28;20959;-83
2022/07/16 05:34:10;;;;;;;1.10;0.77;;;15.60;91.30;;;;;;5073658;28;20491;-83
2022/07/16 05:36:37;;;;;;;1.07;0.70;;;15.70;91.00;;;;;;5073684;28;20449;-83
2022/07/16 05:39:04;;;;;;;0.67;0.67;;;15.80;90.80;;;;;;5073177;28;20495;-84
2022/07/16 05:41:32;;;;;;;0.40;0.40;;;15.90;91.20;;;;;;5073677;28;20445;-83
2022/07/16 05:43:59;;;;;;;0.60;0.60;;;16.00;90.90;;;;;;5073635;28;20441;-84
2022/07/16 05:46:25;;;;;;;1.00;0.70;;;16.10;90.90;;;;;;5073272;28;20464;-83
2022/07/16 05:48:52;;;;;;;0.73;0.50;;;16.20;91.00;;;;;;5073550;28;20457;-83
2022/07/16 05:51:19;;;;;;;0.53;0.50;;;16.30;90.70;;;;;;5073587;28;20803;-83
2022/07/16 05:53:46;;;;;;;1.13;0.60;;;16.40;90.40;;;;;;5073420;28;20484;-83
2022/07/16 05:56:12;;;;;;;0.60;0.60;;;16.50;89.80;;;;;;5073548;28;20452;-83
2022/07/16 05:58:40;;;;;;;0.60;0.60;;;16.60;86.70;;;;;;5073072;28;20835;-83
2022/07/16 06:01:07;;;;;;;1.30;0.60;;;16.70;85.60;;;;;;5073151;28;20449;-83
2022/07/16 06:03:37;;;;;;;0.60;0.50;;;16.90;84.00;;;;;;5073425;28;20459;-83
2022/07/16 06:06:03;;;;;;;1.13;0.60;;;17.00;84.90;;;;;;5073061;28;20448;-83
2022/07/16 06:08:30;;;;;;;3.17;1.67;;;17.20;86.70;;;;;;5073312;28;20468;-83
2022/07/16 06:10:58;;;;;;;1.07;0.97;;;17.40;84.50;;;;;;5073022;28;20951;-83
2022/07/16 06:13:25;;;;;;;0.70;0.70;;;17.50;85.20;;;;;;5073213;28;20481;-83
2022/07/16 06:15:53;;;;;;;0.83;0.50;;;17.60;84.70;;;;;;5073258;28;20449;-83
2022/07/16 06:18:20;;;;;;;0.50;0.50;;;17.80;85.30;;;;;;5073194;28;20464;-83
2022/07/16 06:20:46;;;;;;;0.50;0.50;;;17.90;86.30;;;;;;5075376;28;20449;-83
2022/07/16 06:23:13;;;;;;;1.03;1.03;;;18.10;84.80;;;;;;5077429;28;20448;-84
2022/07/16 06:25:41;;;;;;;0.80;0.57;;;18.30;84.90;;;;;;5077366;28;20445;-83
2022/07/16 06:28:07;;;;;;;0.67;0.50;;;18.40;83.50;;;;;;5077208;28;20468;-83
2022/07/16 06:30:34;;;;;;;0.80;0.80;;;18.40;80.50;;;;;;5077324;28;20455;-83
2022/07/16 06:33:02;;;;;;;0.90;0.60;;;18.50;81.50;;;;;;5077230;28;20445;-84
2022/07/16 06:35:29;;;;;;;0.80;0.80;;;18.70;81.70;;;;;;5076835;28;20437;-83
2022/07/16 06:37:55;;;;;;;0.80;0.67;;;18.90;82.40;;;;;;5076708;28;20469;-83
2022/07/16 06:40:22;;;;;;;0.53;0.53;;;19.10;81.90;;;;;;5077072;28;20444;-83
2022/07/16 06:42:49;;;;;;;0.80;0.63;;;19.40;81.80;;;;;;5076715;28;20971;-83
2022/07/16 06:45:16;;;;;;;0.70;0.70;;;19.60;81.00;;;;;;5076966;28;20444;-83
2022/07/16 06:47:42;;;;;;;1.30;0.90;;;19.70;79.30;;;;;;5076511;28;21002;-83
2022/07/16 06:50:11;;;;;;;0.60;0.60;;;19.80;80.00;;;;;;5076907;28;20429;-84
2022/07/16 06:52:38;;;;;;;0.90;0.90;;;20.10;80.10;;;;;;5077055;28;20444;-83
2022/07/16 06:55:05;;;;;;;0.93;0.60;;;20.30;79.30;;;;;;5076788;28;20487;-83
2022/07/16 06:57:32;;;;;;;0.80;0.60;;;20.60;77.60;;;;;;5076602;28;20464;-84
2022/07/16 06:59:59;;;;;;;0.53;0.50;;;20.70;76.70;;;;;;5077790;28;20440;-83
2022/07/16 07:02:26;;;;;;;0.60;0.57;;;20.80;74.80;;;;;;5078172;28;20451;-83
2022/07/16 07:04:52;;;;;;;0.70;0.70;;;20.90;74.90;;;;;;5076967;28;20449;-84
2022/07/16 07:07:20;;;;;;;0.50;0.50;;;21.10;73.70;;;;;;5076108;28;20916;-83
2022/07/16 07:09:47;;;;;;;0.70;0.70;;;21.20;72.50;;;;;;5077165;28;20452;-83
2022/07/16 07:12:14;;;;;;;0.70;0.60;;;21.40;72.20;;;;;;5076469;28;20444;-83
2022/07/16 07:14:40;;;;;;;0.77;0.60;;;21.50;72.10;;;;;;5076327;28;20472;-83
2022/07/16 07:17:07;;;;;;;1.03;0.83;;;21.50;71.80;;;;;;5076294;28;20429;-83
2022/07/16 07:19:34;;;;;;;1.57;0.60;;;21.70;71.20;;;;;;5076315;28;20448;-84
2022/07/16 07:22:01;;;;;;;0.50;0.50;;;21.80;70.80;;;;;;5076264;28;20448;-83
2022/07/16 07:24:29;;;;;;;0.50;0.50;;;21.80;69.20;;;;;;5075944;28;20463;-84
2022/07/16 07:26:56;;;;;;;0.57;0.53;;;22.10;66.00;;;;;;5076156;28;20456;-83
2022/07/16 07:29:22;;;;;;;0.90;0.60;;;22.30;66.30;;;;;;5076069;28;20472;-84
2022/07/16 07:31:49;;;;;;;0.80;0.60;;;22.40;65.20;;;;;;5076058;28;20307;-83
2022/07/16 07:34:16;;;;;;;1.03;0.50;;;22.40;66.80;;;;;;5075943;28;20484;-84
2022/07/16 07:36:43;;;;;;;0.70;0.60;;;22.40;67.10;;;;;;5075529;28;20936;-83
2022/07/16 07:39:09;;;;;;;0.50;0.50;;;22.70;65.20;;;;;;5075909;28;20218;-83
2022/07/16 07:41:38;;;;;;;4.23;0.60;;;22.90;65.00;;;;;;5075940;28;20213;-83
2022/07/16 07:44:05;;;;;;;0.57;0.57;;;23.00;64.20;;;;;;5075584;28;20738;-84
2022/07/16 07:46:32;;;;;;;0.60;0.60;;;23.20;63.60;;;;;;5075574;28;20681;-84
2022/07/16 07:48:59;;;;;;;0.73;0.73;;;23.40;62.40;;;;;;5075379;28;20224;-84
2022/07/16 07:51:26;;;;;;;0.60;0.50;;;23.60;61.70;;;;;;5075767;28;20198;-83
2022/07/16 07:53:52;;;;;;;7.03;0.75;;;23.80;60.60;;;;;;5075654;28;20584;-84
2022/07/16 07:56:19;;;;;;;0.60;0.60;;;24.00;61.40;;;;;;5075700;28;20204;-84
2022/07/16 07:58:47;;;;;;;0.50;0.50;;;24.10;60.70;;;;;;5075551;28;20222;-84
2022/07/16 08:01:14;;;;;;;0.60;0.50;;;24.30;61.30;;;;;;5075617;28;20206;-84
2022/07/16 08:03:40;;;;;;;1.08;0.50;;;24.70;61.10;;;;;;5075528;28;20205;-83
2022/07/16 08:06:07;;;;;;;0.40;0.40;;;24.90;59.80;;;;;;5075426;28;20198;-83
2022/07/16 08:08:34;;;;;;;1.70;0.60;;;25.10;59.30;;;;;;5076032;28;20599;-83
2022/07/16 08:11:01;;;;;;;2.25;0.60;;;25.30;59.90;;;;;;5075387;28;20202;-84
2022/07/16 08:13:27;;;;;;;0.57;0.57;;;25.60;58.50;;;;;;5075398;28;20183;-84
2022/07/16 08:15:55;;;;;;;0.60;0.60;;;25.60;57.90;;;;;;5075253;28;20232;-84
2022/07/16 08:18:22;;;;;;;0.60;0.60;;;25.60;57.60;;;;;;5074925;28;20732;-84
2022/07/16 08:20:49;;;;;;;0.50;0.50;;;25.40;57.80;;;;;;5075203;28;20209;-84
2022/07/16 08:25:44;;;;;;;0.50;0.50;;;25.40;56.80;;;;;;5074827;28;20205;-83
2022/07/16 08:26:02;;;;;;;0.65;0.50;;;25.30;57.60;;;;;;5074638;28;20626;-83
2022/07/16 08:28:29;;;;;;;0.63;0.60;;;25.10;57.20;;;;;;5074676;28;20306;-84
2022/07/16 08:30:57;;;;;;;0.70;0.70;;;25.20;58.00;;;;;;5074978;28;20205;-84
2022/07/16 08:33:23;;;;;;;0.55;0.55;;;25.40;56.80;;;;;;5074941;28;20232;-84
2022/07/16 08:35:50;;;;;;;0.50;0.50;;;25.50;57.70;;;;;;5074813;28;20239;-84
2022/07/16 08:38:17;;;;;;;0.50;0.45;;;25.60;57.60;;;;;;5074320;28;20237;-84
2022/07/16 08:40:44;;;;;;;0.68;0.65;;;25.60;57.40;;;;;;5074806;28;20206;-85
2022/07/16 08:43:14;;;;;;;0.80;0.80;;;25.60;56.70;;;;;;5073878;28;20202;-84
2022/07/16 08:45:41;;;;;;;0.88;0.60;;;25.80;55.90;;;;;;5074757;28;20203;-84
2022/07/16 08:48:09;;;;;;;0.75;0.75;;;25.80;56.00;;;;;;5074596;28;20223;-84
2022/07/16 08:50:37;;;;;;;0.80;0.70;;;25.90;58.00;;;;;;5074334;28;20217;-84
2022/07/16 08:53:06;;;;;;;0.65;0.65;;;26.00;56.50;;;;;;5074532;28;20198;-84
2022/07/16 08:55:34;;;;;;;1.80;1.00;;;26.10;57.30;;;;;;5074131;28;20218;-83
2022/07/16 08:58:00;;;;;;;0.50;0.50;;;26.30;57.30;;;;;;5074362;28;20249;-84
2022/07/16 09:00:27;;;;;;;1.00;0.90;;;26.30;57.80;;;;;;5074056;28;20209;-84
2022/07/16 09:02:55;;;;;;;1.15;0.80;;;26.30;57.00;;;;;;5074373;28;20209;-84
2022/07/16 09:05:24;;;;;;;0.70;0.70;;;26.30;57.00;;;;;;5074313;28;20194;-84
2022/07/16 09:07:51;;;;;;;0.80;0.65;;;26.30;57.20;;;;;;5074168;28;20225;-85
2022/07/16 09:10:18;;;;;;;0.90;0.60;;;26.40;56.00;;;;;;5074184;28;20208;-84
2022/07/16 09:12:46;;;;;;;0.80;0.75;;;26.50;56.10;;;;;;5074123;28;20205;-84
2022/07/16 09:15:28;;;;;;;0.70;0.50;;;26.70;56.50;;;;;;5073707;28;20218;-84
2022/07/16 09:18:12;;;;;;;2.85;0.70;;;26.90;55.60;;;;;;5074018;28;20302;-84
2022/07/16 09:20:43;;;;;;;0.70;0.70;;;26.90;55.60;;;;;;5073774;28;20190;-83
2022/07/16 09:23:29;;;;;;;2.40;0.88;;;26.90;55.60;;;;;;5074034;28;20183;-84
2022/07/16 09:25:58;;;;;;;1.20;0.80;;;26.80;56.30;;;;;;5073449;28;20661;-84
2022/07/16 09:28:27;;;;;;;1.77;0.60;;;26.70;56.50;;;;;;5073827;28;20228;-84
2022/07/16 09:30:54;;;;;;;0.65;0.65;;;26.60;55.80;;;;;;5073581;28;20198;-83
2022/07/16 09:33:23;;;;;;;1.02;0.82;;;26.30;55.90;;;;;;5073839;28;20225;-84
2022/07/16 09:36:07;;;;;;;0.50;0.50;;;26.20;56.00;;;;;;5073688;28;20314;-84
2022/07/16 09:38:51;;;;;;;0.95;0.95;;;26.30;55.60;;;;;;5073278;28;20608;-85
2022/07/16 09:41:18;;;;;;;1.23;0.80;;;26.30;55.50;;;;;;5074295;28;20186;-84
2022/07/16 09:43:45;;;;;;;0.50;0.50;;;26.30;54.70;;;;;;5073648;28;20293;-85
2022/07/16 09:46:17;;;;;;;0.55;0.55;;;26.30;53.50;;;;;;5073798;28;20214;-84
2022/07/16 09:48:44;;;;;;;0.60;0.60;;;26.10;54.90;;;;;;5073765;28;20244;-84
2022/07/16 09:51:18;;;;;;;0.68;0.68;;;26.30;55.00;;;;;;5073572;28;20231;-84
2022/07/16 09:53:46;;;;;;;1.25;0.70;;;26.50;53.90;;;;;;5073485;28;20205;-87
2022/07/16 09:56:15;;;;;;;0.73;0.70;;;26.60;54.10;;;;;;5072440;28;20217;-84
2022/07/16 09:58:47;;;;;;;0.68;0.68;;;26.50;54.10;;;;;;5073379;28;20226;-84
2022/07/16 10:01:15;;;;;;;0.75;0.55;;;26.30;54.40;;;;;;5073212;28;20589;-84
2022/07/16 10:03:42;;;;;;;0.50;0.50;;;26.20;55.20;;;;;;5073089;28;20252;-83
2022/07/16 10:06:09;;;;;;;0.68;0.55;;;26.10;54.80;;;;;;5073076;28;20613;-85
2022/07/16 10:08:38;;;;;;;0.55;0.55;;;26.00;55.50;;;;;;5073314;28;20637;-84
2022/07/16 10:11:05;;;;;;;0.60;0.60;;;26.00;54.90;;;;;;5073374;28;20568;-83
2022/07/16 10:13:34;;;;;;;0.50;0.50;;;26.00;54.30;;;;;;5073321;28;20208;-83
2022/07/16 10:16:01;;;;;;;0.40;0.40;;;26.10;53.00;;;;;;5072948;28;20218;-83
2022/07/16 10:18:37;;;;;;;0.57;0.57;;;26.10;54.70;;;;;;5073257;28;20222;-83
2022/07/16 10:21:13;;;;;;;0.60;0.60;;;26.20;55.10;;;;;;5073311;28;20186;-83
2022/07/16 10:23:44;;;;;;;0.70;0.70;;;26.30;54.00;;;;;;5073266;28;20186;-83
2022/07/16 10:26:14;;;;;;;0.50;0.50;;;26.20;53.30;;;;;;5073386;28;20198;-83
2022/07/16 10:28:47;;;;;;;0.60;0.60;;;26.00;52.90;;;;;;5072846;28;20593;-85
2022/07/16 10:31:38;;;;;;;0.57;0.50;;;26.00;53.50;;;;;;5073226;28;20190;-84
2022/07/16 10:34:38;;;;;;;0.82;0.70;;;26.10;52.20;;;;;;5073259;28;20198;-83
2022/07/16 10:37:07;;;;;;;0.63;0.63;;;26.10;52.40;;;;;;5061446;28;20238;-83
2022/07/16 10:39:48;;;;;;;0.57;0.57;;;26.00;52.80;;;;;;5072827;28;20645;-82
2022/07/16 10:42:18;;;;;;;0.70;0.60;;;26.10;52.60;;;;;;5072807;28;20665;-83
2022/07/16 10:44:46;;;;;;;0.98;0.85;;;26.00;52.60;;;;;;5073097;28;20187;-83
2022/07/16 10:47:14;;;;;;;0.60;0.60;;;26.10;52.80;;;;;;5072930;28;20251;-83
2022/07/16 10:49:41;;;;;;;0.52;0.50;;;26.30;52.80;;;;;;5072646;28;20245;-83
2022/07/16 10:52:09;;;;;;;0.60;0.60;;;26.20;51.90;;;;;;5072678;28;20673;-83
2022/07/16 10:54:39;;;;;;;0.60;0.60;;;26.30;52.80;;;;;;5072858;28;20209;-83
2022/07/16 10:57:07;;;;;;;0.93;0.93;;;26.30;52.80;;;;;;5072454;28;20681;-83
2022/07/16 10:59:35;;;;;;;0.50;0.50;;;26.30;52.60;;;;;;5072801;28;20206;-83
2022/07/16 11:02:04;;;;;;;1.67;0.70;;;26.40;51.60;;;;;;5072860;28;20202;-83
2022/07/16 11:04:37;;;;;;;0.50;0.50;;;26.50;51.70;;;;;;5072750;28;20206;-83
2022/07/16 11:07:08;;;;;;;0.50;0.50;;;26.80;50.40;;;;;;5074988;28;20197;-83
2022/07/16 11:09:38;;;;;;;0.60;0.60;;;27.30;50.30;;;;;;5076660;28;20209;-83
2022/07/16 11:12:13;;;;;;;0.77;0.60;;;28.20;49.40;;;;;;5076520;28;20575;-83
2022/07/16 11:14:41;;;;;;;0.60;0.60;;;28.60;47.90;;;;;;5076276;28;20192;-83
2022/07/16 11:17:08;;;;;;;1.42;0.60;;;28.60;48.60;;;;;;5076315;28;20202;-83
2022/07/16 11:19:37;;;;;;;0.60;0.60;;;28.50;49.20;;;;;;5076897;28;20206;-83
2022/07/16 11:22:04;;;;;;;0.60;0.60;;;27.90;50.00;;;;;;5076295;28;20203;-83
2022/07/16 11:24:31;;;;;;;0.50;0.50;;;27.70;48.40;;;;;;5076261;28;20206;-83
2022/07/16 11:26:59;;;;;;;0.60;0.50;;;27.50;48.80;;;;;;5075913;28;20248;-83
2022/07/16 11:29:28;;;;;;;0.50;0.43;;;27.10;50.30;;;;;;5076136;28;20226;-83
2022/07/16 11:31:55;;;;;;;0.50;0.50;;;27.00;50.00;;;;;;5075846;28;20209;-83
2022/07/16 11:34:23;;;;;;;0.93;0.57;;;26.80;50.10;;;;;;5076125;28;20233;-83
2022/07/16 11:36:52;;;;;;;0.43;0.43;;;26.80;51.70;;;;;;5075417;28;20254;-83
2022/07/16 11:39:20;;;;;;;0.60;0.60;;;26.70;50.20;;;;;;5075971;28;20218;-83
2022/07/16 11:41:49;;;;;;;0.63;0.55;;;26.80;49.30;;;;;;5075908;28;20202;-83
2022/07/16 11:44:18;;;;;;;0.65;0.60;;;26.70;49.80;;;;;;5075860;28;20205;-83
2022/07/16 11:46:48;;;;;;;0.60;0.50;;;26.60;49.50;;;;;;5075916;28;20182;-83
2022/07/16 11:49:23;;;;;;;0.98;0.65;;;26.50;50.30;;;;;;5075497;28;20222;-83
2022/07/16 11:51:50;;;;;;;0.60;0.60;;;26.40;50.80;;;;;;5075820;28;20232;-83
2022/07/16 11:54:17;;;;;;;0.60;0.60;;;26.30;51.10;;;;;;5075492;28;20201;-83
2022/07/16 11:56:45;;;;;;;0.50;0.50;;;26.30;51.90;;;;;;5075665;28;20218;-83
2022/07/16 11:59:20;;;;;;;0.80;0.63;;;26.40;50.30;;;;;;5075596;28;20226;-82
2022/07/16 12:01:58;;;;;;;0.50;0.50;;;26.30;50.70;;;;;;5075601;28;20209;-85
2022/07/16 12:04:38;;;;;;;0.50;0.50;;;26.10;51.30;;;;;;5075641;28;20205;-83
2022/07/16 12:07:06;;;;;;;0.50;0.50;;;26.10;52.00;;;;;;5075233;28;20178;-82
2022/07/16 12:09:35;;;;;;;0.82;0.60;;;26.10;51.90;;;;;;5075465;28;20205;-83
2022/07/16 12:12:05;;;;;;;0.50;0.50;;;26.10;50.70;;;;;;5075414;28;20198;-83
2022/07/16 12:14:46;;;;;;;0.43;0.43;;;26.00;50.60;;;;;;5075393;28;20202;-84
2022/07/16 12:17:26;;;;;;;0.60;0.60;;;25.90;51.20;;;;;;5074768;28;20206;-83
2022/07/16 12:20:14;;;;;;;0.73;0.55;;;25.90;51.50;;;;;;5075176;28;20292;-84
2022/07/16 12:22:50;;;;;;;0.40;0.40;;;25.80;51.60;;;;;;5075226;28;20186;-83
2022/07/16 12:25:28;;;;;;;0.98;0.50;;;25.80;51.80;;;;;;5075195;28;20183;-82
2022/07/16 12:27:57;;;;;;;0.80;0.50;;;25.80;51.50;;;;;;5075053;28;20221;-83
2022/07/16 12:30:30;;;;;;;0.73;0.70;;;25.80;51.70;;;;;;5075056;28;20206;-84
2022/07/16 12:33:00;;;;;;;0.50;0.50;;;25.80;53.20;;;;;;5075054;28;20252;-83
2022/07/16 12:35:44;;;;;;;1.75;0.60;;;25.80;52.00;;;;;;5074849;28;20248;-83
2022/07/16 12:38:41;;;;;;;0.50;0.47;;;25.80;52.30;;;;;;5074486;28;20234;-83
2022/07/16 12:41:12;;;;;;;1.15;0.75;;;25.90;51.90;;;;;;5074900;28;20222;-83
2022/07/16 12:43:39;;;;;;;0.40;0.40;;;25.90;50.90;;;;;;5074845;28;20208;-83
2022/07/16 12:46:06;;;;;;;0.50;0.50;;;25.80;50.50;;;;;;5074386;28;20204;-83
2022/07/16 12:48:42;;;;;;;0.50;0.40;;;25.70;51.10;;;;;;5074305;28;20222;-83
2022/07/16 12:51:09;;;;;;;0.40;0.40;;;25.60;51.10;;;;;;5074616;28;20214;-84
2022/07/16 12:53:35;;;;;;;0.52;0.52;;;25.60;51.00;;;;;;5074567;28;20259;-84
2022/07/16 12:58:49;;;;;;;1.48;0.60;;;25.50;51.90;;;;;;5074151;28;20220;-83
2022/07/16 13:01:17;;;;;;;0.80;0.50;;;25.60;51.70;;;;;;5074111;28;20571;-83
2022/07/16 13:03:46;;;;;;;0.70;0.52;;;25.50;51.40;;;;;;5074109;28;20688;-84